createdAt,value
2019-04-03T00:02:02.666Z,7.48
2019-04-03T00:04:31.184Z,7.36
2019-04-03T00:06:58.970Z,7.33
2019-04-03T00:09:26.897Z,7.30
2019-04-03T00:11:54.799Z,7.43
2019-04-03T00:14:22.868Z,7.47
2019-04-03T00:16:50.795Z,7.31
2019-04-03T00:19:18.792Z,7.28
2019-04-03T00:21:46.901Z,7.25
2019-04-03T00:24:14.938Z,7.18
2019-04-03T00:26:42.711Z,7.18
2019-04-03T00:29:10.632Z,7.18
2019-04-03T00:31:38.646Z,7.10
2019-04-03T00:34:06.657Z,7.08
2019-04-03T00:36:34.590Z,7.10
2019-04-03T00:39:04.563Z,7.13
2019-04-03T00:41:34.514Z,7.12
2019-04-03T00:44:02.379Z,7.17
2019-04-03T00:46:30.331Z,7.17
2019-04-03T00:48:58.400Z,7.12
2019-04-03T00:51:27.520Z,7.04
2019-04-03T00:53:58.007Z,7.09
2019-04-03T00:56:26.703Z,7.10
2019-04-03T00:58:55.386Z,7.03
2019-04-03T01:01:26.135Z,6.93
2019-04-03T01:03:53.763Z,6.93
2019-04-03T01:06:21.801Z,6.88
2019-04-03T01:08:49.923Z,6.83
2019-04-03T01:11:17.978Z,6.76
2019-04-03T01:13:45.748Z,6.80
2019-04-03T01:16:13.671Z,6.85
2019-04-03T01:18:41.685Z,6.86
2019-04-03T01:21:09.862Z,6.81
2019-04-03T01:23:38.224Z,6.74
2019-04-03T01:26:06.169Z,6.76
2019-04-03T01:28:34.243Z,6.78
2019-04-03T01:31:02.214Z,6.71
2019-04-03T01:33:31.221Z,6.67
2019-04-03T01:35:59.446Z,6.66
2019-04-03T01:38:27.406Z,6.68
2019-04-03T01:40:55.628Z,6.62
2019-04-03T01:43:23.773Z,6.63
2019-04-03T01:45:51.971Z,6.65
2019-04-03T01:48:19.812Z,6.73
2019-04-03T01:50:47.975Z,6.61
2019-04-03T01:53:16.059Z,6.55
2019-04-03T01:55:44.084Z,6.54
2019-04-03T01:58:12.087Z,6.50
2019-04-03T02:00:40.056Z,6.59
2019-04-03T02:03:10.315Z,6.73
2019-04-03T02:05:39.790Z,6.62
2019-04-03T02:08:07.765Z,6.60
2019-04-03T02:10:36.007Z,6.63
2019-04-03T02:13:03.972Z,6.48
2019-04-03T02:15:31.954Z,6.56
2019-04-03T02:17:59.903Z,6.54
2019-04-03T02:20:28.320Z,6.49
2019-04-03T02:22:56.244Z,6.55
2019-04-03T02:25:24.205Z,6.47
2019-04-03T02:27:52.051Z,6.47
2019-04-03T02:30:19.989Z,6.50
2019-04-03T02:32:48.493Z,6.52
2019-04-03T02:35:16.961Z,6.56
2019-04-03T02:37:48.383Z,6.58
2019-04-03T02:40:14.961Z,6.57
2019-04-03T02:42:43.305Z,6.62
2019-04-03T02:45:11.479Z,6.61
2019-04-03T02:47:39.519Z,6.66
2019-04-03T02:50:07.862Z,6.54
2019-04-03T02:52:36.782Z,6.47
2019-04-03T02:55:07.415Z,6.45
2019-04-03T02:57:35.165Z,6.56
2019-04-03T03:00:03.679Z,6.56
2019-04-03T03:02:31.624Z,6.60
2019-04-03T03:05:00.144Z,6.56
2019-04-03T03:07:27.968Z,6.53
2019-04-03T03:09:56.481Z,6.54
2019-04-03T03:12:27.147Z,6.49
2019-04-03T03:14:55.050Z,6.50
2019-04-03T03:17:24.201Z,6.55
2019-04-03T03:19:52.514Z,6.61
2019-04-03T03:22:20.470Z,6.52
2019-04-03T03:24:48.913Z,6.48
2019-04-03T03:27:17.114Z,6.52
2019-04-03T03:29:45.357Z,6.43
2019-04-03T03:32:19.832Z,6.44
2019-04-03T03:34:54.069Z,6.42
2019-04-03T03:37:15.560Z,6.32
2019-04-03T03:39:44.575Z,6.19
2019-04-03T03:42:14.050Z,6.34
2019-04-03T03:44:45.481Z,6.15
2019-04-03T03:47:12.684Z,6.08
2019-04-03T03:49:41.104Z,6.00
2019-04-03T03:52:09.128Z,5.97
2019-04-03T03:54:37.839Z,5.88
2019-04-03T03:57:07.193Z,5.89
2019-04-03T03:59:36.739Z,5.83
2019-04-03T04:02:06.102Z,5.81
2019-04-03T04:04:34.447Z,5.79
2019-04-03T04:07:04.508Z,5.77
2019-04-03T04:09:32.821Z,5.78
2019-04-03T04:12:04.546Z,5.76
2019-04-03T04:14:31.204Z,5.59
2019-04-03T04:16:59.261Z,5.59
2019-04-03T04:19:30.191Z,5.69
2019-04-03T04:21:57.555Z,5.74
2019-04-03T04:24:27.648Z,5.66
2019-04-03T04:26:55.529Z,5.57
2019-04-03T04:29:23.996Z,5.61
2019-04-03T04:31:51.911Z,5.50
2019-04-03T04:34:19.917Z,5.56
2019-04-03T04:36:47.796Z,5.54
2019-04-03T04:39:15.695Z,5.63
2019-04-03T04:41:43.649Z,5.64
2019-04-03T04:44:14.203Z,5.63
2019-04-03T04:46:43.609Z,5.73
2019-04-03T04:49:11.814Z,5.79
2019-04-03T04:51:41.403Z,5.81
2019-04-03T04:54:09.525Z,5.78
2019-04-03T04:56:38.415Z,5.92
2019-04-03T04:59:06.417Z,5.86
2019-04-03T05:01:34.635Z,5.86
2019-04-03T05:04:02.706Z,5.92
2019-04-03T05:06:30.690Z,5.93
2019-04-03T05:08:59.220Z,5.98
2019-04-03T05:11:27.305Z,6.05
2019-04-03T05:13:55.211Z,6.19
2019-04-03T05:16:25.048Z,6.32
2019-04-03T05:18:53.688Z,6.42
2019-04-03T05:21:22.332Z,6.44
2019-04-03T05:23:50.754Z,6.56
2019-04-03T05:26:20.946Z,6.68
2019-04-03T05:28:57.094Z,6.65
2019-04-03T05:31:21.379Z,6.74
2019-04-03T05:33:49.295Z,6.76
2019-04-03T05:36:18.314Z,6.90
2019-04-03T05:38:46.323Z,7.07
2019-04-03T05:41:14.368Z,7.19
2019-04-03T05:43:42.468Z,7.22
2019-04-03T05:46:10.568Z,7.35
2019-04-03T05:48:38.499Z,7.44
2019-04-03T05:51:06.406Z,7.66
2019-04-03T05:53:36.619Z,7.76
2019-04-03T05:56:04.453Z,8.12
2019-04-03T05:58:32.495Z,8.35
2019-04-03T06:01:05.432Z,8.52
2019-04-03T06:03:39.227Z,8.76
2019-04-03T06:06:02.042Z,8.92
2019-04-03T06:08:30.215Z,9.31
2019-04-03T06:10:58.055Z,9.52
2019-04-03T06:13:26.052Z,9.61
2019-04-03T06:15:54.179Z,9.77
2019-04-03T06:18:22.167Z,9.94
2019-04-03T06:20:50.071Z,10.14
2019-04-03T06:23:20.972Z,10.26
2019-04-03T06:25:48.008Z,10.38
2019-04-03T06:28:15.880Z,10.59
2019-04-03T06:30:43.741Z,10.80
2019-04-03T06:33:11.634Z,11.09
2019-04-03T06:35:39.538Z,11.28
2019-04-03T06:38:07.522Z,11.66
2019-04-03T06:40:36.327Z,11.80
2019-04-03T06:43:04.367Z,12.08
2019-04-03T06:45:32.617Z,12.17
2019-04-03T06:48:00.671Z,12.39
2019-04-03T06:50:28.771Z,12.59
2019-04-03T06:52:56.755Z,12.99
2019-04-03T06:55:25.507Z,13.15
2019-04-03T06:57:54.154Z,13.39
2019-04-03T07:00:22.050Z,13.58
2019-04-03T07:02:50.141Z,13.69
2019-04-03T07:05:18.279Z,13.91
2019-04-03T07:07:46.304Z,14.14
2019-04-03T07:10:24.805Z,14.29
2019-04-03T07:12:46.427Z,14.31
2019-04-03T07:15:15.354Z,14.49
2019-04-03T07:17:43.590Z,15.14
2019-04-03T07:20:14.170Z,15.78
2019-04-03T07:22:42.008Z,16.79
2019-04-03T07:25:10.184Z,17.80
2019-04-03T07:27:41.271Z,17.99
2019-04-03T07:30:08.334Z,18.13
2019-04-03T07:32:36.225Z,19.36
2019-04-03T07:35:08.920Z,19.33
2019-04-03T07:37:35.068Z,19.94
2019-04-03T07:40:03.480Z,19.66
2019-04-03T07:42:31.410Z,20.40
2019-04-03T07:45:01.411Z,20.71
2019-04-03T07:47:29.622Z,21.24
2019-04-03T07:49:57.613Z,21.54
2019-04-03T07:52:25.931Z,22.04
2019-04-03T07:54:56.643Z,21.68
2019-04-03T07:57:25.065Z,21.34
2019-04-03T07:59:53.264Z,20.59
2019-04-03T08:02:21.366Z,20.59
2019-04-03T08:04:49.427Z,21.11
2019-04-03T08:07:17.519Z,22.54
2019-04-03T08:09:45.525Z,22.54
2019-04-03T08:12:13.643Z,21.88
2019-04-03T08:14:41.994Z,21.49
2019-04-03T08:17:10.062Z,22.05
2019-04-03T08:19:37.990Z,21.93
2019-04-03T08:22:05.996Z,22.23
2019-04-03T08:24:33.945Z,21.98
2019-04-03T08:27:01.828Z,22.81
2019-04-03T08:29:31.062Z,22.47
2019-04-03T08:31:59.780Z,23.10
2019-04-03T08:34:30.678Z,23.17
2019-04-03T08:36:57.795Z,24.18
2019-04-03T08:39:26.217Z,23.81
2019-04-03T08:41:56.036Z,24.06
2019-04-03T08:44:23.979Z,26.64
2019-04-03T08:46:51.958Z,27.17
2019-04-03T08:49:20.251Z,27.38
2019-04-03T08:51:49.549Z,26.39
2019-04-03T08:54:17.908Z,26.39
2019-04-03T08:56:48.332Z,27.30
2019-04-03T08:59:15.965Z,27.17
2019-04-03T09:01:44.225Z,26.92
2019-04-03T09:04:12.241Z,27.15
2019-04-03T09:06:40.183Z,27.27
2019-04-03T09:09:09.610Z,28.27
2019-04-03T09:11:38.163Z,27.95
2019-04-03T09:14:06.402Z,27.00
2019-04-03T09:16:35.718Z,25.77
2019-04-03T09:19:03.880Z,26.24
2019-04-03T09:21:32.130Z,26.15
2019-04-03T09:24:00.375Z,25.48
2019-04-03T09:26:28.318Z,24.95
2019-04-03T09:28:56.506Z,24.43
2019-04-03T09:31:24.751Z,23.93
2019-04-03T09:33:52.694Z,23.10
2019-04-03T09:36:21.714Z,22.74
2019-04-03T09:38:49.965Z,22.64
2019-04-03T09:41:19.230Z,22.61
2019-04-03T09:43:47.985Z,22.54
2019-04-03T09:46:15.961Z,21.88
2019-04-03T09:48:43.834Z,21.88
2019-04-03T09:51:12.116Z,21.20
2019-04-03T09:53:40.199Z,20.35
2019-04-03T09:56:08.631Z,19.95
2019-04-03T09:58:36.743Z,19.74
2019-04-03T10:01:05.035Z,19.68
2019-04-03T10:03:34.144Z,19.87
2019-04-03T10:06:02.777Z,20.24
2019-04-03T10:08:30.818Z,20.70
2019-04-03T10:10:59.134Z,20.60
2019-04-03T10:13:26.991Z,20.87
2019-04-03T10:15:56.005Z,22.13
2019-04-03T10:18:23.904Z,22.59
2019-04-03T10:20:52.126Z,23.23
2019-04-03T10:23:20.072Z,23.79
2019-04-03T10:25:48.093Z,24.02
2019-04-03T10:28:16.404Z,24.47
2019-04-03T10:30:45.153Z,25.05
2019-04-03T10:33:13.207Z,25.27
2019-04-03T10:35:41.068Z,24.44
2019-04-03T10:38:09.131Z,24.44
2019-04-03T10:40:37.532Z,24.96
2019-04-03T10:43:06.342Z,25.29
2019-04-03T10:45:34.852Z,26.09
2019-04-03T10:48:03.939Z,26.49
2019-04-03T10:50:31.946Z,26.03
2019-04-03T10:53:00.164Z,26.68
2019-04-03T10:55:29.367Z,26.18
2019-04-03T10:57:57.754Z,25.87
2019-04-03T11:00:28.627Z,24.92
2019-04-03T11:02:56.275Z,24.16
2019-04-03T11:05:24.360Z,23.71
2019-04-03T11:07:52.531Z,23.78
2019-04-03T11:10:23.456Z,23.51
2019-04-03T11:12:50.968Z,23.29
2019-04-03T11:15:19.103Z,23.71
2019-04-03T11:17:49.364Z,23.38
2019-04-03T11:20:17.352Z,22.72
2019-04-03T11:22:48.993Z,23.66
2019-04-03T11:25:17.387Z,24.31
2019-04-03T11:27:46.164Z,24.81
2019-04-03T11:30:54.599Z,25.06
2019-04-03T11:32:45.192Z,26.05
2019-04-03T11:35:13.813Z,27.14
2019-04-03T11:37:41.897Z,27.64
2019-04-03T11:40:10.575Z,28.90
2019-04-03T11:42:38.452Z,30.78
2019-04-03T11:45:06.992Z,30.92
2019-04-03T11:47:35.000Z,30.70
2019-04-03T11:50:03.539Z,30.97
2019-04-03T11:52:31.975Z,31.07
2019-04-03T11:55:00.279Z,31.09
2019-04-03T11:57:28.661Z,30.98
2019-04-03T11:59:57.038Z,31.53
2019-04-03T12:02:26.028Z,31.14
2019-04-03T12:04:54.479Z,30.66
2019-04-03T12:07:24.459Z,31.27
2019-04-03T12:09:52.339Z,32.17
2019-04-03T12:12:21.578Z,33.48
2019-04-03T12:14:50.166Z,33.67
2019-04-03T12:17:20.108Z,32.78
2019-04-03T12:19:48.714Z,32.83
2019-04-03T12:22:16.928Z,32.51
2019-04-03T12:24:45.219Z,31.68
2019-04-03T12:27:14.040Z,29.94
2019-04-03T12:29:43.283Z,28.43
2019-04-03T12:32:11.283Z,29.24
2019-04-03T12:34:39.556Z,27.94
2019-04-03T12:37:07.769Z,25.52
2019-04-03T12:39:35.806Z,25.40
2019-04-03T12:42:08.322Z,24.74
2019-04-03T12:44:35.651Z,24.51
2019-04-03T12:47:06.906Z,25.48
2019-04-03T12:49:33.449Z,25.32
2019-04-03T12:52:03.707Z,25.35
2019-04-03T12:54:31.290Z,24.23
2019-04-03T12:57:01.649Z,24.19
2019-04-03T12:59:29.386Z,25.47
2019-04-03T13:01:57.551Z,25.05
2019-04-03T13:04:28.232Z,25.23
2019-04-03T13:06:55.643Z,24.76
2019-04-03T13:09:23.605Z,26.31
2019-04-03T13:11:51.968Z,27.80
2019-04-03T13:14:25.097Z,29.30
2019-04-03T13:16:49.771Z,29.86
2019-04-03T13:19:17.839Z,30.07
2019-04-03T13:21:46.076Z,31.34
2019-04-03T13:24:15.832Z,31.99
2019-04-03T13:26:44.133Z,31.36
2019-04-03T13:29:12.206Z,30.02
2019-04-03T13:31:40.711Z,29.39
2019-04-03T13:34:11.833Z,30.40
2019-04-03T13:36:39.934Z,28.83
2019-04-03T13:39:07.959Z,28.11
2019-04-03T13:41:35.878Z,27.54
2019-04-03T13:44:03.903Z,27.51
2019-04-03T13:46:32.469Z,27.02
2019-04-03T13:49:00.568Z,26.98
2019-04-03T13:51:30.556Z,27.14
2019-04-03T13:53:58.447Z,27.40
2019-04-03T13:56:26.842Z,27.00
2019-04-03T13:58:55.913Z,25.13
2019-04-03T14:01:27.672Z,23.89
2019-04-03T14:03:55.564Z,23.10
2019-04-03T14:06:24.106Z,23.69
2019-04-03T14:08:52.010Z,22.64
2019-04-03T14:11:19.974Z,21.73
2019-04-03T14:13:48.388Z,21.20
2019-04-03T14:16:21.350Z,21.08
2019-04-03T14:18:45.989Z,21.27
2019-04-03T14:21:14.098Z,20.87
2019-04-03T14:23:42.056Z,20.72
2019-04-03T14:26:12.987Z,20.47
2019-04-03T14:28:41.955Z,19.90
2019-04-03T14:31:10.503Z,19.14
2019-04-03T14:33:44.182Z,19.04
2019-04-03T14:36:08.481Z,18.47
2019-04-03T14:38:36.583Z,18.19
2019-04-03T14:41:04.723Z,18.03
2019-04-03T14:43:34.459Z,17.68
2019-04-03T14:46:02.903Z,17.30
2019-04-03T14:48:31.788Z,16.59
2019-04-03T14:50:59.971Z,16.14
2019-04-03T14:53:28.252Z,15.88
2019-04-03T14:55:56.315Z,15.34
2019-04-03T14:58:26.896Z,15.07
2019-04-03T15:00:54.422Z,14.77
2019-04-03T15:03:22.787Z,14.73
2019-04-03T15:05:51.279Z,14.59
2019-04-03T15:08:20.306Z,14.60
2019-04-03T15:10:50.209Z,14.63
2019-04-03T15:13:19.069Z,14.57
2019-04-03T15:15:46.946Z,14.63
2019-04-03T15:18:15.299Z,14.89
2019-04-03T15:20:43.432Z,15.20
2019-04-03T15:23:12.070Z,15.44
2019-04-03T15:25:42.550Z,15.89
2019-04-03T15:28:10.355Z,16.08
2019-04-03T15:30:41.638Z,16.20
2019-04-03T15:33:09.046Z,16.37
2019-04-03T15:35:37.463Z,16.42
2019-04-03T15:38:05.335Z,16.38
2019-04-03T15:40:33.302Z,16.25
2019-04-03T15:43:01.771Z,16.22
2019-04-03T15:45:29.876Z,16.19
2019-04-03T15:47:58.458Z,16.24
2019-04-03T15:50:27.912Z,16.22
2019-04-03T15:52:56.639Z,16.17
2019-04-03T15:55:25.413Z,16.16
2019-04-03T15:57:53.998Z,16.27
2019-04-03T16:00:22.453Z,16.17
2019-04-03T16:02:50.320Z,16.04
2019-04-03T16:05:18.824Z,15.83
2019-04-03T16:07:47.337Z,15.75
2019-04-03T16:10:15.527Z,15.76
2019-04-03T16:12:44.132Z,15.78
2019-04-03T16:15:12.794Z,15.83
2019-04-03T16:17:40.730Z,15.65
2019-04-03T16:20:08.815Z,15.62
2019-04-03T16:22:36.912Z,15.56
2019-04-03T16:25:05.261Z,15.65
2019-04-03T16:27:33.311Z,15.54
2019-04-03T16:30:01.319Z,15.46
2019-04-03T16:32:29.365Z,15.42
2019-04-03T16:34:57.916Z,15.32
2019-04-03T16:37:25.938Z,15.40
2019-04-03T16:39:54.141Z,15.41
2019-04-03T16:42:22.681Z,15.47
2019-04-03T16:44:50.979Z,15.46
2019-04-03T16:47:19.198Z,15.51
2019-04-03T16:49:47.560Z,15.56
2019-04-03T16:52:15.854Z,15.60
2019-04-03T16:54:44.998Z,15.59
2019-04-03T16:57:13.774Z,15.56
2019-04-03T16:59:41.881Z,15.60
2019-04-03T17:02:09.976Z,15.59
2019-04-03T17:04:37.935Z,15.51
2019-04-03T17:07:06.300Z,15.46
2019-04-03T17:09:37.479Z,15.48
2019-04-03T17:12:04.074Z,15.35
2019-04-03T17:14:33.192Z,15.28
2019-04-03T17:17:01.200Z,15.27
2019-04-03T17:19:29.607Z,15.24
2019-04-03T17:21:57.677Z,15.27
2019-04-03T17:24:25.897Z,15.18
2019-04-03T17:26:58.533Z,15.10
2019-04-03T17:29:24.789Z,15.11
2019-04-03T17:31:52.998Z,15.02
2019-04-03T17:34:22.123Z,15.09
2019-04-03T17:36:52.677Z,15.02
2019-04-03T17:39:20.171Z,14.97
2019-04-03T17:41:48.237Z,14.92
2019-04-03T17:44:16.311Z,14.93
2019-04-03T17:46:44.271Z,14.90
2019-04-03T17:49:12.292Z,14.79
2019-04-03T17:51:40.255Z,14.66
2019-04-03T17:54:09.284Z,14.52
2019-04-03T17:56:37.422Z,14.37
2019-04-03T17:59:05.374Z,14.31
2019-04-03T18:01:33.593Z,14.13
2019-04-03T18:04:01.579Z,13.92
2019-04-03T18:06:29.642Z,13.91
2019-04-03T18:08:57.502Z,13.86
2019-04-03T18:11:25.722Z,13.77
2019-04-03T18:13:54.973Z,13.69
2019-04-03T18:16:23.835Z,13.62
2019-04-03T18:18:51.738Z,13.47
2019-04-03T18:21:19.952Z,13.44
2019-04-03T18:23:47.912Z,13.31
2019-04-03T18:26:16.158Z,13.24
2019-04-03T18:28:44.125Z,13.19
2019-04-03T18:31:13.615Z,13.15
2019-04-03T18:33:41.902Z,13.03
2019-04-03T18:36:10.109Z,12.93
2019-04-03T18:38:39.689Z,12.90
2019-04-03T18:41:07.567Z,12.77
2019-04-03T18:43:35.339Z,12.70
2019-04-03T18:46:03.642Z,12.47
2019-04-03T18:48:31.580Z,12.52
2019-04-03T18:50:59.535Z,12.43
2019-04-03T18:53:27.442Z,12.42
2019-04-03T18:55:55.666Z,12.33
2019-04-03T18:58:24.352Z,12.38
2019-04-03T19:00:53.454Z,12.28
2019-04-03T19:03:21.389Z,12.23
2019-04-03T19:05:49.685Z,12.13
2019-04-03T19:08:18.165Z,12.07
2019-04-03T19:10:46.770Z,12.03
2019-04-03T19:13:14.781Z,12.04
2019-04-03T19:15:42.863Z,12.04
2019-04-03T19:18:19.414Z,11.99
2019-04-03T19:20:41.491Z,11.91
2019-04-03T19:23:10.986Z,11.81
2019-04-03T19:25:39.255Z,11.80
2019-04-03T19:28:07.185Z,11.71
2019-04-03T19:30:36.119Z,11.61
2019-04-03T19:33:05.060Z,11.52
2019-04-03T19:35:33.007Z,11.46
2019-04-03T19:38:04.609Z,11.49
2019-04-03T19:40:31.386Z,11.48
2019-04-03T19:42:59.446Z,11.41
2019-04-03T19:45:27.535Z,11.31
2019-04-03T19:47:55.632Z,11.22
2019-04-03T19:50:24.553Z,11.15
2019-04-03T19:52:52.800Z,11.19
2019-04-03T19:55:23.256Z,11.11
2019-04-03T19:57:50.519Z,11.03
2019-04-03T20:00:18.605Z,11.22
2019-04-03T20:02:46.445Z,11.09
2019-04-03T20:05:14.260Z,11.25
2019-04-03T20:07:42.287Z,11.42
2019-04-03T20:10:10.871Z,11.36
2019-04-03T20:12:39.954Z,11.37
2019-04-03T20:15:08.157Z,11.38
2019-04-03T20:17:37.242Z,11.28
2019-04-03T20:20:05.516Z,11.18
2019-04-03T20:22:33.468Z,11.12
2019-04-03T20:25:01.495Z,11.12
2019-04-03T20:27:29.594Z,11.05
2019-04-03T20:29:58.902Z,11.03
2019-04-03T20:32:27.367Z,11.04
2019-04-03T20:34:55.277Z,10.95
2019-04-03T20:37:25.914Z,10.89
2019-04-03T20:39:53.213Z,10.91
2019-04-03T20:42:21.252Z,10.86
2019-04-03T20:44:49.320Z,10.95
2019-04-03T20:47:17.223Z,10.83
2019-04-03T20:49:45.201Z,10.83
2019-04-03T20:52:13.376Z,10.78
2019-04-03T20:54:41.499Z,10.79
2019-04-03T20:57:09.295Z,10.70
2019-04-03T20:59:38.165Z,10.74
2019-04-03T21:02:08.073Z,10.71
2019-04-03T21:04:36.151Z,10.65
2019-04-03T21:07:04.001Z,10.62
2019-04-03T21:09:31.973Z,10.55
2019-04-03T21:11:59.893Z,10.56
2019-04-03T21:14:28.062Z,10.54
2019-04-03T21:16:56.263Z,10.56
2019-04-03T21:19:24.368Z,10.52
2019-04-03T21:21:52.581Z,10.45
2019-04-03T21:24:20.519Z,10.39
2019-04-03T21:26:48.574Z,10.32
2019-04-03T21:29:17.379Z,10.38
2019-04-03T21:31:45.526Z,10.29
2019-04-03T21:34:13.687Z,10.51
2019-04-03T21:36:41.678Z,10.39
2019-04-03T21:39:10.989Z,10.32
2019-04-03T21:41:39.777Z,10.34
2019-04-03T21:44:07.829Z,10.38
2019-04-03T21:46:35.913Z,10.41
2019-04-03T21:49:03.975Z,10.19
2019-04-03T21:51:31.894Z,10.26
2019-04-03T21:54:00.152Z,10.42
2019-04-03T21:56:28.210Z,10.47
2019-04-03T21:58:56.126Z,10.82
2019-04-03T22:01:25.813Z,10.49
2019-04-03T22:03:53.985Z,10.59
2019-04-03T22:06:22.268Z,10.65
2019-04-03T22:08:52.013Z,10.82
2019-04-03T22:11:20.021Z,10.74
2019-04-03T22:13:49.521Z,10.91
2019-04-03T22:16:20.407Z,11.10
2019-04-03T22:18:48.510Z,11.07
2019-04-03T22:21:17.675Z,11.12
2019-04-03T22:23:45.720Z,10.72
2019-04-03T22:26:13.962Z,10.45
2019-04-03T22:28:41.880Z,10.23
2019-04-03T22:31:09.512Z,9.84
2019-04-03T22:33:37.355Z,9.58
2019-04-03T22:36:05.432Z,9.45
2019-04-03T22:38:33.193Z,9.36
2019-04-03T22:41:01.363Z,9.40
2019-04-03T22:43:29.095Z,9.35
2019-04-03T22:45:57.221Z,9.37
2019-04-03T22:48:27.482Z,9.33
2019-04-03T22:50:55.032Z,9.72
2019-04-03T22:53:23.118Z,10.13
2019-04-03T22:55:51.538Z,10.37
2019-04-03T22:58:21.499Z,10.49
2019-04-03T23:00:49.684Z,10.16
2019-04-03T23:03:17.565Z,9.72
2019-04-03T23:05:47.740Z,9.45
2019-04-03T23:08:16.434Z,9.12
2019-04-03T23:10:44.500Z,9.44
2019-04-03T23:13:12.399Z,9.90
2019-04-03T23:15:40.215Z,10.14
2019-04-03T23:18:08.106Z,10.32
2019-04-03T23:20:36.182Z,10.40
2019-04-03T23:23:04.224Z,10.58
2019-04-03T23:25:32.294Z,10.19
2019-04-03T23:28:02.806Z,10.12
2019-04-03T23:30:30.083Z,9.73
2019-04-03T23:32:57.905Z,9.58
2019-04-03T23:35:26.001Z,9.31
2019-04-03T23:37:55.807Z,9.09
2019-04-03T23:40:23.981Z,8.87
2019-04-03T23:42:51.975Z,9.08
2019-04-03T23:45:20.769Z,8.98
2019-04-03T23:47:48.856Z,9.13
2019-04-03T23:50:17.195Z,9.66
2019-04-03T23:52:45.018Z,9.85
2019-04-03T23:55:12.980Z,10.00
2019-04-03T23:57:41.068Z,9.78
